sensor_id;sensor_type;location;lat;lon;timestamp;P1;durP1;ratioP1;P2;durP2;ratioP2
55706;SDS011;41608;45.384;20.394;2022-08-19T00:00:45;11.05;;;8.20;;
55706;SDS011;41608;45.384;20.394;2022-08-19T00:03:11;11.75;;;7.97;;
55706;SDS011;41608;45.384;20.394;2022-08-19T00:05:37;12.73;;;8.65;;
55706;SDS011;41608;45.384;20.394;2022-08-19T00:08:05;10.65;;;7.63;;
55706;SDS011;41608;45.384;20.394;2022-08-19T00:10:31;12.55;;;7.65;;
55706;SDS011;41608;45.384;20.394;2022-08-19T00:12:59;15.05;;;8.60;;
55706;SDS011;41608;45.384;20.394;2022-08-19T00:15:25;12.15;;;9.68;;
55706;SDS011;41608;45.384;20.394;2022-08-19T00:17:51;12.45;;;8.52;;
55706;SDS011;41608;45.384;20.394;2022-08-19T00:20:18;12.32;;;7.88;;
55706;SDS011;41608;45.384;20.394;2022-08-19T00:22:45;14.88;;;9.13;;
55706;SDS011;41608;45.384;20.394;2022-08-19T00:25:12;13.30;;;8.45;;
55706;SDS011;41608;45.384;20.394;2022-08-19T00:27:38;14.85;;;9.52;;
55706;SDS011;41608;45.384;20.394;2022-08-19T00:30:05;27.55;;;8.88;;
55706;SDS011;41608;45.384;20.394;2022-08-19T00:32:32;11.73;;;8.95;;
55706;SDS011;41608;45.384;20.394;2022-08-19T00:34:59;15.10;;;11.25;;
55706;SDS011;41608;45.384;20.394;2022-08-19T00:37:26;12.05;;;9.10;;
55706;SDS011;41608;45.384;20.394;2022-08-19T00:39:52;14.80;;;9.85;;
55706;SDS011;41608;45.384;20.394;2022-08-19T00:42:19;16.35;;;10.40;;
55706;SDS011;41608;45.384;20.394;2022-08-19T00:44:45;11.82;;;10.38;;
55706;SDS011;41608;45.384;20.394;2022-08-19T00:47:11;13.00;;;10.25;;
55706;SDS011;41608;45.384;20.394;2022-08-19T00:49:40;12.88;;;9.75;;
55706;SDS011;41608;45.384;20.394;2022-08-19T00:52:11;19.40;;;10.60;;
55706;SDS011;41608;45.384;20.394;2022-08-19T00:54:39;12.68;;;10.43;;
55706;SDS011;41608;45.384;20.394;2022-08-19T00:57:06;13.77;;;10.57;;
55706;SDS011;41608;45.384;20.394;2022-08-19T00:59:36;12.85;;;10.57;;
55706;SDS011;41608;45.384;20.394;2022-08-19T01:02:04;14.18;;;10.50;;
55706;SDS011;41608;45.384;20.394;2022-08-19T01:04:30;16.63;;;11.35;;
55706;SDS011;41608;45.384;20.394;2022-08-19T01:06:56;19.38;;;10.75;;
55706;SDS011;41608;45.384;20.394;2022-08-19T01:09:25;17.40;;;10.63;;
55706;SDS011;41608;45.384;20.394;2022-08-19T01:11:51;14.68;;;10.13;;
55706;SDS011;41608;45.384;20.394;2022-08-19T01:14:17;17.40;;;11.35;;
55706;SDS011;41608;45.384;20.394;2022-08-19T01:16:44;13.93;;;9.85;;
55706;SDS011;41608;45.384;20.394;2022-08-19T01:19:34;12.07;;;9.65;;
55706;SDS011;41608;45.384;20.394;2022-08-19T01:22:00;14.90;;;10.70;;
55706;SDS011;41608;45.384;20.394;2022-08-19T01:24:28;19.35;;;10.25;;
55706;SDS011;41608;45.384;20.394;2022-08-19T01:26:54;15.63;;;10.90;;
55706;SDS011;41608;45.384;20.394;2022-08-19T01:29:20;16.58;;;10.98;;
55706;SDS011;41608;45.384;20.394;2022-08-19T01:31:46;19.40;;;10.77;;
55706;SDS011;41608;45.384;20.394;2022-08-19T01:34:14;19.52;;;10.98;;
55706;SDS011;41608;45.384;20.394;2022-08-19T01:36:41;19.77;;;11.23;;
55706;SDS011;41608;45.384;20.394;2022-08-19T01:39:13;16.25;;;10.82;;
55706;SDS011;41608;45.384;20.394;2022-08-19T01:41:39;14.75;;;10.18;;
55706;SDS011;41608;45.384;20.394;2022-08-19T01:44:06;15.65;;;11.32;;
55706;SDS011;41608;45.384;20.394;2022-08-19T01:46:34;16.42;;;10.68;;
55706;SDS011;41608;45.384;20.394;2022-08-19T01:49:01;14.45;;;9.57;;
55706;SDS011;41608;45.384;20.394;2022-08-19T01:51:30;18.73;;;10.35;;
55706;SDS011;41608;45.384;20.394;2022-08-19T01:53:56;17.67;;;11.27;;
55706;SDS011;41608;45.384;20.394;2022-08-19T01:56:23;16.23;;;10.13;;
55706;SDS011;41608;45.384;20.394;2022-08-19T01:58:51;16.02;;;11.27;;
55706;SDS011;41608;45.384;20.394;2022-08-19T02:01:19;18.13;;;11.07;;
55706;SDS011;41608;45.384;20.394;2022-08-19T02:03:45;16.38;;;10.43;;
55706;SDS011;41608;45.384;20.394;2022-08-19T02:06:12;15.55;;;9.82;;
55706;SDS011;41608;45.384;20.394;2022-08-19T02:08:39;18.75;;;11.23;;
55706;SDS011;41608;45.384;20.394;2022-08-19T02:11:05;16.13;;;10.60;;
55706;SDS011;41608;45.384;20.394;2022-08-19T02:13:32;16.60;;;10.57;;
55706;SDS011;41608;45.384;20.394;2022-08-19T02:15:59;21.73;;;11.30;;
55706;SDS011;41608;45.384;20.394;2022-08-19T02:18:25;17.55;;;11.57;;
55706;SDS011;41608;45.384;20.394;2022-08-19T02:20:51;16.65;;;11.60;;
55706;SDS011;41608;45.384;20.394;2022-08-19T02:23:18;20.42;;;11.73;;
55706;SDS011;41608;45.384;20.394;2022-08-19T02:25:45;16.35;;;10.73;;
55706;SDS011;41608;45.384;20.394;2022-08-19T02:28:12;24.00;;;11.55;;
55706;SDS011;41608;45.384;20.394;2022-08-19T02:30:38;15.88;;;10.95;;
55706;SDS011;41608;45.384;20.394;2022-08-19T02:33:04;16.15;;;10.10;;
55706;SDS011;41608;45.384;20.394;2022-08-19T02:35:30;13.98;;;10.63;;
55706;SDS011;41608;45.384;20.394;2022-08-19T02:37:57;17.98;;;11.23;;
55706;SDS011;41608;45.384;20.394;2022-08-19T02:40:47;16.52;;;12.05;;
55706;SDS011;41608;45.384;20.394;2022-08-19T02:43:15;20.30;;;11.43;;
55706;SDS011;41608;45.384;20.394;2022-08-19T02:45:41;20.55;;;12.05;;
55706;SDS011;41608;45.384;20.394;2022-08-19T02:48:07;20.05;;;11.70;;
55706;SDS011;41608;45.384;20.394;2022-08-19T02:50:37;22.55;;;12.13;;
55706;SDS011;41608;45.384;20.394;2022-08-19T02:53:03;17.77;;;11.52;;
55706;SDS011;41608;45.384;20.394;2022-08-19T02:55:30;15.75;;;11.35;;
55706;SDS011;41608;45.384;20.394;2022-08-19T02:57:56;15.15;;;10.35;;
55706;SDS011;41608;45.384;20.394;2022-08-19T03:00:22;18.13;;;10.93;;
55706;SDS011;41608;45.384;20.394;2022-08-19T03:02:49;13.75;;;11.07;;
55706;SDS011;41608;45.384;20.394;2022-08-19T03:05:15;22.88;;;12.15;;
55706;SDS011;41608;45.384;20.394;2022-08-19T03:07:41;19.27;;;11.57;;
55706;SDS011;41608;45.384;20.394;2022-08-19T03:10:07;22.75;;;11.10;;
55706;SDS011;41608;45.384;20.394;2022-08-19T03:12:39;18.10;;;10.20;;
55706;SDS011;41608;45.384;20.394;2022-08-19T03:15:07;15.23;;;11.00;;
55706;SDS011;41608;45.384;20.394;2022-08-19T03:17:34;18.55;;;11.02;;
55706;SDS011;41608;45.384;20.394;2022-08-19T03:20:00;15.32;;;9.07;;
55706;SDS011;41608;45.384;20.394;2022-08-19T03:22:28;17.92;;;9.80;;
55706;SDS011;41608;45.384;20.394;2022-08-19T03:24:55;13.48;;;9.93;;
55706;SDS011;41608;45.384;20.394;2022-08-19T03:27:21;17.58;;;10.38;;
55706;SDS011;41608;45.384;20.394;2022-08-19T03:29:47;21.48;;;10.30;;
55706;SDS011;41608;45.384;20.394;2022-08-19T03:32:13;13.30;;;10.02;;
55706;SDS011;41608;45.384;20.394;2022-08-19T03:34:39;15.43;;;8.80;;
55706;SDS011;41608;45.384;20.394;2022-08-19T03:37:07;15.95;;;10.02;;
55706;SDS011;41608;45.384;20.394;2022-08-19T03:39:33;14.15;;;9.55;;
55706;SDS011;41608;45.384;20.394;2022-08-19T03:41:59;15.10;;;9.55;;
55706;SDS011;41608;45.384;20.394;2022-08-19T03:44:27;16.80;;;9.32;;
55706;SDS011;41608;45.384;20.394;2022-08-19T03:46:54;14.63;;;8.75;;
55706;SDS011;41608;45.384;20.394;2022-08-19T03:49:21;11.63;;;8.95;;
55706;SDS011;41608;45.384;20.394;2022-08-19T03:51:48;15.60;;;8.60;;
55706;SDS011;41608;45.384;20.394;2022-08-19T03:54:17;15.90;;;9.88;;
55706;SDS011;41608;45.384;20.394;2022-08-19T03:56:46;14.85;;;9.27;;
55706;SDS011;41608;45.384;20.394;2022-08-19T03:59:18;21.52;;;8.77;;
55706;SDS011;41608;45.384;20.394;2022-08-19T04:01:45;16.58;;;8.27;;
55706;SDS011;41608;45.384;20.394;2022-08-19T04:04:13;15.05;;;8.40;;
55706;SDS011;41608;45.384;20.394;2022-08-19T04:06:39;12.07;;;9.02;;
55706;SDS011;41608;45.384;20.394;2022-08-19T04:09:06;11.70;;;8.70;;
55706;SDS011;41608;45.384;20.394;2022-08-19T04:11:34;10.70;;;9.45;;
55706;SDS011;41608;45.384;20.394;2022-08-19T04:14:00;13.38;;;8.10;;
55706;SDS011;41608;45.384;20.394;2022-08-19T04:16:27;15.20;;;9.23;;
55706;SDS011;41608;45.384;20.394;2022-08-19T04:18:56;13.93;;;9.45;;
55706;SDS011;41608;45.384;20.394;2022-08-19T04:21:24;15.73;;;8.15;;
55706;SDS011;41608;45.384;20.394;2022-08-19T04:23:51;13.43;;;7.43;;
55706;SDS011;41608;45.384;20.394;2022-08-19T04:26:18;23.35;;;8.55;;
55706;SDS011;41608;45.384;20.394;2022-08-19T04:28:45;14.32;;;7.85;;
55706;SDS011;41608;45.384;20.394;2022-08-19T04:31:19;15.82;;;8.57;;
55706;SDS011;41608;45.384;20.394;2022-08-19T04:33:46;18.08;;;8.27;;
55706;SDS011;41608;45.384;20.394;2022-08-19T04:36:18;14.13;;;8.48;;
55706;SDS011;41608;45.384;20.394;2022-08-19T04:38:45;18.27;;;8.73;;
55706;SDS011;41608;45.384;20.394;2022-08-19T04:41:11;20.20;;;9.38;;
55706;SDS011;41608;45.384;20.394;2022-08-19T04:43:56;14.52;;;7.43;;
55706;SDS011;41608;45.384;20.394;2022-08-19T04:46:22;19.73;;;7.35;;
55706;SDS011;41608;45.384;20.394;2022-08-19T04:48:48;17.27;;;8.55;;
55706;SDS011;41608;45.384;20.394;2022-08-19T04:51:14;18.00;;;7.57;;
55706;SDS011;41608;45.384;20.394;2022-08-19T04:53:41;14.50;;;7.38;;
55706;SDS011;41608;45.384;20.394;2022-08-19T04:56:09;11.32;;;6.88;;
55706;SDS011;41608;45.384;20.394;2022-08-19T04:58:35;15.02;;;9.48;;
55706;SDS011;41608;45.384;20.394;2022-08-19T05:01:02;16.17;;;6.95;;
55706;SDS011;41608;45.384;20.394;2022-08-19T05:03:30;16.23;;;8.32;;
55706;SDS011;41608;45.384;20.394;2022-08-19T05:05:58;11.77;;;7.70;;
55706;SDS011;41608;45.384;20.394;2022-08-19T05:08:24;10.45;;;6.70;;
55706;SDS011;41608;45.384;20.394;2022-08-19T05:10:50;10.70;;;6.95;;
55706;SDS011;41608;45.384;20.394;2022-08-19T05:13:17;13.43;;;8.43;;
55706;SDS011;41608;45.384;20.394;2022-08-19T05:15:52;18.08;;;8.98;;
55706;SDS011;41608;45.384;20.394;2022-08-19T05:18:19;7.68;;;5.95;;
55706;SDS011;41608;45.384;20.394;2022-08-19T05:21:07;27.35;;;8.57;;
55706;SDS011;41608;45.384;20.394;2022-08-19T05:23:52;14.95;;;8.25;;
55706;SDS011;41608;45.384;20.394;2022-08-19T05:26:18;11.90;;;6.55;;
55706;SDS011;41608;45.384;20.394;2022-08-19T05:28:44;15.98;;;7.10;;
55706;SDS011;41608;45.384;20.394;2022-08-19T05:31:10;9.77;;;6.25;;
55706;SDS011;41608;45.384;20.394;2022-08-19T05:33:37;13.55;;;6.60;;
55706;SDS011;41608;45.384;20.394;2022-08-19T05:36:04;14.18;;;6.97;;
55706;SDS011;41608;45.384;20.394;2022-08-19T05:38:32;11.60;;;6.47;;
55706;SDS011;41608;45.384;20.394;2022-08-19T05:40:59;11.48;;;6.90;;
55706;SDS011;41608;45.384;20.394;2022-08-19T05:43:25;11.15;;;5.93;;
55706;SDS011;41608;45.384;20.394;2022-08-19T05:45:51;11.80;;;6.72;;
55706;SDS011;41608;45.384;20.394;2022-08-19T05:48:17;17.60;;;7.38;;
55706;SDS011;41608;45.384;20.394;2022-08-19T05:50:45;10.55;;;6.40;;
55706;SDS011;41608;45.384;20.394;2022-08-19T05:53:12;19.65;;;6.05;;
55706;SDS011;41608;45.384;20.394;2022-08-19T05:55:41;14.65;;;7.30;;
55706;SDS011;41608;45.384;20.394;2022-08-19T05:58:07;11.98;;;6.97;;
55706;SDS011;41608;45.384;20.394;2022-08-19T06:00:34;24.60;;;7.18;;
55706;SDS011;41608;45.384;20.394;2022-08-19T06:03:00;16.17;;;6.57;;
55706;SDS011;41608;45.384;20.394;2022-08-19T06:05:29;10.40;;;6.45;;
55706;SDS011;41608;45.384;20.394;2022-08-19T06:07:55;13.65;;;6.35;;
55706;SDS011;41608;45.384;20.394;2022-08-19T06:10:21;11.57;;;5.45;;
55706;SDS011;41608;45.384;20.394;2022-08-19T06:12:47;13.63;;;6.97;;
55706;SDS011;41608;45.384;20.394;2022-08-19T06:15:13;9.77;;;5.63;;
55706;SDS011;41608;45.384;20.394;2022-08-19T06:17:40;10.27;;;5.82;;
55706;SDS011;41608;45.384;20.394;2022-08-19T06:20:07;15.60;;;5.80;;
55706;SDS011;41608;45.384;20.394;2022-08-19T06:22:38;17.52;;;6.75;;
55706;SDS011;41608;45.384;20.394;2022-08-19T06:25:05;7.63;;;6.07;;
55706;SDS011;41608;45.384;20.394;2022-08-19T06:27:31;9.13;;;5.80;;
55706;SDS011;41608;45.384;20.394;2022-08-19T06:29:58;10.25;;;5.65;;
55706;SDS011;41608;45.384;20.394;2022-08-19T06:32:24;21.60;;;6.07;;
55706;SDS011;41608;45.384;20.394;2022-08-19T06:34:50;13.63;;;6.47;;
55706;SDS011;41608;45.384;20.394;2022-08-19T06:37:18;13.38;;;6.75;;
55706;SDS011;41608;45.384;20.394;2022-08-19T06:39:44;21.25;;;6.72;;
55706;SDS011;41608;45.384;20.394;2022-08-19T06:42:10;14.82;;;6.35;;
55706;SDS011;41608;45.384;20.394;2022-08-19T06:44:39;25.85;;;7.35;;
55706;SDS011;41608;45.384;20.394;2022-08-19T06:47:07;14.05;;;5.53;;
55706;SDS011;41608;45.384;20.394;2022-08-19T06:49:34;14.50;;;6.55;;
55706;SDS011;41608;45.384;20.394;2022-08-19T06:52:00;14.63;;;6.05;;
55706;SDS011;41608;45.384;20.394;2022-08-19T06:54:27;13.40;;;5.63;;
55706;SDS011;41608;45.384;20.394;2022-08-19T06:56:54;10.18;;;5.47;;
55706;SDS011;41608;45.384;20.394;2022-08-19T06:59:21;15.82;;;5.70;;
55706;SDS011;41608;45.384;20.394;2022-08-19T07:01:55;10.85;;;5.20;;
55706;SDS011;41608;45.384;20.394;2022-08-19T07:04:29;11.55;;;5.93;;
55706;SDS011;41608;45.384;20.394;2022-08-19T07:07:08;12.00;;;5.80;;
55706;SDS011;41608;45.384;20.394;2022-08-19T07:09:35;12.90;;;5.38;;
55706;SDS011;41608;45.384;20.394;2022-08-19T07:12:04;10.80;;;5.60;;
55706;SDS011;41608;45.384;20.394;2022-08-19T07:14:31;15.63;;;7.43;;
55706;SDS011;41608;45.384;20.394;2022-08-19T07:17:00;13.20;;;6.28;;
55706;SDS011;41608;45.384;20.394;2022-08-19T07:19:26;12.80;;;5.22;;
55706;SDS011;41608;45.384;20.394;2022-08-19T07:21:54;10.35;;;5.25;;
55706;SDS011;41608;45.384;20.394;2022-08-19T07:24:21;9.68;;;5.20;;
55706;SDS011;41608;45.384;20.394;2022-08-19T07:26:53;8.27;;;4.90;;
55706;SDS011;41608;45.384;20.394;2022-08-19T07:29:19;9.25;;;4.75;;
55706;SDS011;41608;45.384;20.394;2022-08-19T07:31:48;9.20;;;4.97;;
55706;SDS011;41608;45.384;20.394;2022-08-19T07:34:14;8.85;;;4.82;;
55706;SDS011;41608;45.384;20.394;2022-08-19T07:36:41;17.17;;;5.30;;
55706;SDS011;41608;45.384;20.394;2022-08-19T07:39:09;13.60;;;5.22;;
55706;SDS011;41608;45.384;20.394;2022-08-19T07:41:36;7.93;;;5.15;;
55706;SDS011;41608;45.384;20.394;2022-08-19T07:44:05;8.43;;;5.00;;
55706;SDS011;41608;45.384;20.394;2022-08-19T07:46:36;8.95;;;5.07;;
55706;SDS011;41608;45.384;20.394;2022-08-19T07:49:03;8.98;;;4.95;;
55706;SDS011;41608;45.384;20.394;2022-08-19T07:51:29;13.27;;;5.70;;
55706;SDS011;41608;45.384;20.394;2022-08-19T07:53:55;8.82;;;5.22;;
55706;SDS011;41608;45.384;20.394;2022-08-19T07:56:22;8.98;;;5.20;;
55706;SDS011;41608;45.384;20.394;2022-08-19T07:58:49;14.43;;;6.32;;
55706;SDS011;41608;45.384;20.394;2022-08-19T08:01:17;8.50;;;4.63;;
55706;SDS011;41608;45.384;20.394;2022-08-19T08:03:44;9.15;;;5.22;;
55706;SDS011;41608;45.384;20.394;2022-08-19T08:06:29;9.75;;;5.13;;
55706;SDS011;41608;45.384;20.394;2022-08-19T08:09:23;7.88;;;5.55;;
55706;SDS011;41608;45.384;20.394;2022-08-19T08:14:29;9.60;;;5.07;;
55706;SDS011;41608;45.384;20.394;2022-08-19T08:16:56;6.80;;;4.35;;
55706;SDS011;41608;45.384;20.394;2022-08-19T08:19:23;10.20;;;5.28;;
55706;SDS011;41608;45.384;20.394;2022-08-19T08:21:50;10.93;;;4.63;;
55706;SDS011;41608;45.384;20.394;2022-08-19T08:24:16;10.30;;;5.30;;
55706;SDS011;41608;45.384;20.394;2022-08-19T08:26:43;6.70;;;4.70;;
55706;SDS011;41608;45.384;20.394;2022-08-19T08:29:09;10.38;;;5.40;;
55706;SDS011;41608;45.384;20.394;2022-08-19T08:31:36;11.23;;;5.18;;
55706;SDS011;41608;45.384;20.394;2022-08-19T08:34:03;11.10;;;4.97;;
55706;SDS011;41608;45.384;20.394;2022-08-19T08:36:29;8.35;;;4.45;;
55706;SDS011;41608;45.384;20.394;2022-08-19T08:38:58;9.82;;;5.15;;
55706;SDS011;41608;45.384;20.394;2022-08-19T08:43:53;6.47;;;4.50;;
55706;SDS011;41608;45.384;20.394;2022-08-19T08:49:11;11.07;;;5.15;;
55706;SDS011;41608;45.384;20.394;2022-08-19T08:51:42;10.60;;;5.10;;
55706;SDS011;41608;45.384;20.394;2022-08-19T08:54:10;8.48;;;3.90;;
55706;SDS011;41608;45.384;20.394;2022-08-19T08:56:42;8.65;;;5.53;;
55706;SDS011;41608;45.384;20.394;2022-08-19T08:59:14;9.38;;;4.78;;
55706;SDS011;41608;45.384;20.394;2022-08-19T09:01:42;9.63;;;5.15;;
55706;SDS011;41608;45.384;20.394;2022-08-19T09:04:08;9.05;;;5.80;;
55706;SDS011;41608;45.384;20.394;2022-08-19T09:06:40;8.88;;;4.80;;
55706;SDS011;41608;45.384;20.394;2022-08-19T09:09:14;5.13;;;4.35;;
55706;SDS011;41608;45.384;20.394;2022-08-19T09:11:44;7.13;;;4.13;;
55706;SDS011;41608;45.384;20.394;2022-08-19T09:16:58;8.32;;;4.30;;
55706;SDS011;41608;45.384;20.394;2022-08-19T09:19:24;18.23;;;4.88;;
55706;SDS011;41608;45.384;20.394;2022-08-19T09:21:50;14.93;;;4.80;;
55706;SDS011;41608;45.384;20.394;2022-08-19T09:24:16;8.98;;;4.20;;
55706;SDS011;41608;45.384;20.394;2022-08-19T09:26:43;13.20;;;5.30;;
55706;SDS011;41608;45.384;20.394;2022-08-19T09:29:09;9.38;;;4.47;;
55706;SDS011;41608;45.384;20.394;2022-08-19T09:31:35;23.33;;;5.32;;
55706;SDS011;41608;45.384;20.394;2022-08-19T09:34:02;8.30;;;4.32;;
55706;SDS011;41608;45.384;20.394;2022-08-19T09:36:31;10.82;;;5.38;;
55706;SDS011;41608;45.384;20.394;2022-08-19T09:39:04;8.75;;;4.47;;
55706;SDS011;41608;45.384;20.394;2022-08-19T09:41:31;8.30;;;4.47;;
55706;SDS011;41608;45.384;20.394;2022-08-19T09:43:57;11.48;;;4.28;;
55706;SDS011;41608;45.384;20.394;2022-08-19T09:46:24;8.43;;;4.18;;
55706;SDS011;41608;45.384;20.394;2022-08-19T09:48:51;6.35;;;4.47;;
55706;SDS011;41608;45.384;20.394;2022-08-19T09:51:20;8.15;;;3.80;;
55706;SDS011;41608;45.384;20.394;2022-08-19T09:53:47;11.88;;;4.95;;
55706;SDS011;41608;45.384;20.394;2022-08-19T09:56:15;12.80;;;4.25;;
55706;SDS011;41608;45.384;20.394;2022-08-19T09:58:42;11.27;;;5.20;;
55706;SDS011;41608;45.384;20.394;2022-08-19T10:01:08;10.77;;;4.75;;
55706;SDS011;41608;45.384;20.394;2022-08-19T10:03:36;11.65;;;5.97;;
55706;SDS011;41608;45.384;20.394;2022-08-19T10:06:04;7.80;;;4.25;;
55706;SDS011;41608;45.384;20.394;2022-08-19T10:08:31;13.48;;;6.00;;
55706;SDS011;41608;45.384;20.394;2022-08-19T10:10:58;9.88;;;4.63;;
55706;SDS011;41608;45.384;20.394;2022-08-19T10:13:25;13.43;;;5.38;;
55706;SDS011;41608;45.384;20.394;2022-08-19T10:15:52;8.57;;;4.97;;
55706;SDS011;41608;45.384;20.394;2022-08-19T10:18:20;12.02;;;4.68;;
55706;SDS011;41608;45.384;20.394;2022-08-19T10:20:47;16.02;;;5.55;;
55706;SDS011;41608;45.384;20.394;2022-08-19T10:23:13;9.18;;;4.43;;
55706;SDS011;41608;45.384;20.394;2022-08-19T10:25:40;8.40;;;4.78;;
55706;SDS011;41608;45.384;20.394;2022-08-19T10:28:06;6.88;;;4.25;;
55706;SDS011;41608;45.384;20.394;2022-08-19T10:30:33;11.18;;;4.65;;
55706;SDS011;41608;45.384;20.394;2022-08-19T10:33:00;14.88;;;4.95;;
55706;SDS011;41608;45.384;20.394;2022-08-19T10:35:26;9.98;;;4.85;;
55706;SDS011;41608;45.384;20.394;2022-08-19T10:37:54;9.35;;;4.10;;
55706;SDS011;41608;45.384;20.394;2022-08-19T10:40:24;10.20;;;4.28;;
55706;SDS011;41608;45.384;20.394;2022-08-19T10:42:51;11.30;;;5.57;;
55706;SDS011;41608;45.384;20.394;2022-08-19T10:45:20;9.65;;;5.10;;
55706;SDS011;41608;45.384;20.394;2022-08-19T10:47:49;9.38;;;4.03;;
55706;SDS011;41608;45.384;20.394;2022-08-19T10:50:16;8.32;;;4.45;;
55706;SDS011;41608;45.384;20.394;2022-08-19T10:53:03;9.88;;;4.65;;
55706;SDS011;41608;45.384;20.394;2022-08-19T10:55:30;11.00;;;4.30;;
55706;SDS011;41608;45.384;20.394;2022-08-19T10:58:16;13.82;;;4.55;;
55706;SDS011;41608;45.384;20.394;2022-08-19T11:00:51;9.18;;;4.80;;
55706;SDS011;41608;45.384;20.394;2022-08-19T11:03:18;10.93;;;4.75;;
55706;SDS011;41608;45.384;20.394;2022-08-19T11:05:44;10.18;;;4.35;;
55706;SDS011;41608;45.384;20.394;2022-08-19T11:08:10;10.43;;;4.13;;
55706;SDS011;41608;45.384;20.394;2022-08-19T11:10:37;11.15;;;5.28;;
55706;SDS011;41608;45.384;20.394;2022-08-19T11:13:03;12.35;;;5.32;;
55706;SDS011;41608;45.384;20.394;2022-08-19T11:15:29;13.00;;;6.30;;
55706;SDS011;41608;45.384;20.394;2022-08-19T11:17:57;8.15;;;4.97;;
55706;SDS011;41608;45.384;20.394;2022-08-19T11:20:25;9.35;;;4.13;;
55706;SDS011;41608;45.384;20.394;2022-08-19T11:22:52;10.82;;;4.97;;
55706;SDS011;41608;45.384;20.394;2022-08-19T11:25:18;10.50;;;4.18;;
55706;SDS011;41608;45.384;20.394;2022-08-19T11:27:45;10.40;;;4.50;;
55706;SDS011;41608;45.384;20.394;2022-08-19T11:30:12;10.65;;;4.38;;
55706;SDS011;41608;45.384;20.394;2022-08-19T11:32:40;9.95;;;4.78;;
55706;SDS011;41608;45.384;20.394;2022-08-19T11:35:06;7.05;;;4.72;;
55706;SDS011;41608;45.384;20.394;2022-08-19T11:37:33;15.15;;;6.22;;
55706;SDS011;41608;45.384;20.394;2022-08-19T11:40:02;7.97;;;4.35;;
55706;SDS011;41608;45.384;20.394;2022-08-19T11:42:28;12.73;;;4.40;;
55706;SDS011;41608;45.384;20.394;2022-08-19T11:45:13;10.32;;;4.38;;
55706;SDS011;41608;45.384;20.394;2022-08-19T11:47:39;10.57;;;4.50;;
55706;SDS011;41608;45.384;20.394;2022-08-19T11:50:05;9.98;;;4.95;;
55706;SDS011;41608;45.384;20.394;2022-08-19T11:52:32;9.05;;;4.45;;
55706;SDS011;41608;45.384;20.394;2022-08-19T11:54:58;10.70;;;5.25;;
55706;SDS011;41608;45.384;20.394;2022-08-19T11:57:24;8.68;;;4.45;;
55706;SDS011;41608;45.384;20.394;2022-08-19T11:59:50;11.00;;;5.18;;
55706;SDS011;41608;45.384;20.394;2022-08-19T12:02:17;9.82;;;3.80;;
55706;SDS011;41608;45.384;20.394;2022-08-19T12:04:44;9.75;;;4.53;;
55706;SDS011;41608;45.384;20.394;2022-08-19T12:07:12;13.02;;;4.75;;
55706;SDS011;41608;45.384;20.394;2022-08-19T12:09:38;12.65;;;5.00;;
55706;SDS011;41608;45.384;20.394;2022-08-19T12:12:05;10.90;;;4.75;;
55706;SDS011;41608;45.384;20.394;2022-08-19T12:14:31;8.95;;;4.00;;
55706;SDS011;41608;45.384;20.394;2022-08-19T12:16:57;14.13;;;6.40;;
55706;SDS011;41608;45.384;20.394;2022-08-19T12:19:23;10.27;;;4.78;;
55706;SDS011;41608;45.384;20.394;2022-08-19T12:21:50;8.75;;;4.43;;
55706;SDS011;41608;45.384;20.394;2022-08-19T12:24:20;10.88;;;4.95;;
55706;SDS011;41608;45.384;20.394;2022-08-19T12:26:48;11.32;;;4.97;;
55706;SDS011;41608;45.384;20.394;2022-08-19T12:29:14;14.23;;;5.35;;
55706;SDS011;41608;45.384;20.394;2022-08-19T12:31:41;12.43;;;4.78;;
55706;SDS011;41608;45.384;20.394;2022-08-19T12:34:07;9.82;;;4.32;;
55706;SDS011;41608;45.384;20.394;2022-08-19T12:36:33;7.75;;;4.55;;
55706;SDS011;41608;45.384;20.394;2022-08-19T12:38:59;13.07;;;5.60;;
55706;SDS011;41608;45.384;20.394;2022-08-19T12:41:25;13.30;;;4.55;;
55706;SDS011;41608;45.384;20.394;2022-08-19T12:43:54;15.13;;;5.03;;
55706;SDS011;41608;45.384;20.394;2022-08-19T12:46:20;17.52;;;5.25;;
55706;SDS011;41608;45.384;20.394;2022-08-19T12:48:46;12.05;;;4.82;;
55706;SDS011;41608;45.384;20.394;2022-08-19T12:51:14;15.20;;;6.53;;
55706;SDS011;41608;45.384;20.394;2022-08-19T12:53:40;10.95;;;4.65;;
55706;SDS011;41608;45.384;20.394;2022-08-19T12:56:07;13.20;;;5.53;;
55706;SDS011;41608;45.384;20.394;2022-08-19T12:58:33;8.90;;;4.43;;
55706;SDS011;41608;45.384;20.394;2022-08-19T13:01:12;16.77;;;5.32;;
55706;SDS011;41608;45.384;20.394;2022-08-19T13:03:39;14.13;;;4.57;;
55706;SDS011;41608;45.384;20.394;2022-08-19T13:06:05;16.13;;;6.20;;
55706;SDS011;41608;45.384;20.394;2022-08-19T13:08:31;14.23;;;5.55;;
55706;SDS011;41608;45.384;20.394;2022-08-19T13:10:58;13.18;;;5.63;;
55706;SDS011;41608;45.384;20.394;2022-08-19T13:13:31;12.88;;;4.75;;
55706;SDS011;41608;45.384;20.394;2022-08-19T13:16:00;15.85;;;4.75;;
55706;SDS011;41608;45.384;20.394;2022-08-19T13:18:29;16.75;;;5.13;;
55706;SDS011;41608;45.384;20.394;2022-08-19T13:20:56;12.80;;;5.70;;
55706;SDS011;41608;45.384;20.394;2022-08-19T13:23:24;17.90;;;4.30;;
55706;SDS011;41608;45.384;20.394;2022-08-19T13:26:00;9.50;;;5.07;;
55706;SDS011;41608;45.384;20.394;2022-08-19T13:28:27;8.25;;;4.72;;
55706;SDS011;41608;45.384;20.394;2022-08-19T13:31:17;8.63;;;4.63;;
55706;SDS011;41608;45.384;20.394;2022-08-19T13:34:02;13.27;;;5.63;;
55706;SDS011;41608;45.384;20.394;2022-08-19T13:36:29;11.48;;;4.90;;
55706;SDS011;41608;45.384;20.394;2022-08-19T13:38:55;9.75;;;4.75;;
55706;SDS011;41608;45.384;20.394;2022-08-19T13:41:21;11.40;;;5.15;;
55706;SDS011;41608;45.384;20.394;2022-08-19T13:43:47;14.68;;;5.78;;
55706;SDS011;41608;45.384;20.394;2022-08-19T13:46:14;8.88;;;5.05;;
55706;SDS011;41608;45.384;20.394;2022-08-19T13:48:40;15.23;;;5.60;;
55706;SDS011;41608;45.384;20.394;2022-08-19T13:51:07;12.65;;;4.82;;
55706;SDS011;41608;45.384;20.394;2022-08-19T13:53:35;13.07;;;5.55;;
55706;SDS011;41608;45.384;20.394;2022-08-19T13:56:06;12.88;;;5.63;;
55706;SDS011;41608;45.384;20.394;2022-08-19T13:58:32;12.38;;;4.85;;
55706;SDS011;41608;45.384;20.394;2022-08-19T14:00:58;11.52;;;4.70;;
55706;SDS011;41608;45.384;20.394;2022-08-19T14:03:25;9.52;;;5.32;;
55706;SDS011;41608;45.384;20.394;2022-08-19T14:05:51;18.05;;;5.95;;
55706;SDS011;41608;45.384;20.394;2022-08-19T14:08:17;8.68;;;4.78;;
55706;SDS011;41608;45.384;20.394;2022-08-19T14:10:43;9.52;;;4.93;;
55706;SDS011;41608;45.384;20.394;2022-08-19T14:13:12;13.25;;;5.00;;
55706;SDS011;41608;45.384;20.394;2022-08-19T14:15:38;10.60;;;4.72;;
55706;SDS011;41608;45.384;20.394;2022-08-19T14:18:05;16.30;;;4.80;;
55706;SDS011;41608;45.384;20.394;2022-08-19T14:20:33;12.15;;;5.00;;
55706;SDS011;41608;45.384;20.394;2022-08-19T14:23:00;12.25;;;4.82;;
55706;SDS011;41608;45.384;20.394;2022-08-19T14:25:28;12.38;;;5.53;;
55706;SDS011;41608;45.384;20.394;2022-08-19T14:27:54;8.98;;;4.60;;
55706;SDS011;41608;45.384;20.394;2022-08-19T14:30:22;16.95;;;5.30;;
55706;SDS011;41608;45.384;20.394;2022-08-19T14:32:48;14.55;;;4.57;;
55706;SDS011;41608;45.384;20.394;2022-08-19T14:35:14;14.20;;;5.40;;